createdAt,value
2023-04-18T00:02:07.249Z,99.90
2023-04-18T00:04:36.952Z,99.90
2023-04-18T00:07:06.239Z,99.90
2023-04-18T00:09:33.064Z,99.90
2023-04-18T00:11:59.876Z,99.90
2023-04-18T00:14:26.604Z,99.90
2023-04-18T00:16:54.193Z,99.90
2023-04-18T00:19:21.615Z,99.90
2023-04-18T00:21:49.467Z,99.90
2023-04-18T00:24:16.625Z,99.90
2023-04-18T00:26:43.408Z,99.90
2023-04-18T00:29:10.023Z,99.90
2023-04-18T00:31:36.944Z,99.90
2023-04-18T00:34:03.785Z,99.90
2023-04-18T00:36:31.091Z,99.90
2023-04-18T00:38:57.847Z,99.90
2023-04-18T00:41:27.496Z,99.90
2023-04-18T00:43:57.244Z,99.90
2023-04-18T00:46:23.932Z,99.90
2023-04-18T00:48:50.755Z,99.90
2023-04-18T00:51:17.390Z,99.90
2023-04-18T00:53:44.646Z,99.90
2023-04-18T00:56:11.267Z,99.90
2023-04-18T00:58:40.397Z,99.90
2023-04-18T01:01:07.809Z,99.90
2023-04-18T01:03:34.868Z,99.90
2023-04-18T01:08:32.262Z,99.90
2023-04-18T01:10:58.842Z,99.90
2023-04-18T01:13:25.380Z,99.90
2023-04-18T01:15:51.972Z,99.90
2023-04-18T01:18:18.936Z,99.90
2023-04-18T01:20:49.285Z,99.90
2023-04-18T01:23:16.427Z,99.90
2023-04-18T01:25:43.672Z,99.90
2023-04-18T01:28:10.752Z,99.90
2023-04-18T01:30:37.371Z,99.90
2023-04-18T01:33:04.691Z,99.90
2023-04-18T01:35:32.017Z,99.90
2023-04-18T01:37:58.900Z,99.90
2023-04-18T01:40:28.889Z,99.90
2023-04-18T01:42:55.588Z,99.90
2023-04-18T01:45:22.439Z,99.90
2023-04-18T01:47:49.238Z,99.90
2023-04-18T01:50:15.947Z,99.90
2023-04-18T01:52:42.813Z,99.90
2023-04-18T01:55:09.676Z,99.90
2023-04-18T01:57:38.712Z,99.90
2023-04-18T02:00:06.304Z,99.90
2023-04-18T02:02:33.268Z,99.90
2023-04-18T02:05:00.209Z,99.90
2023-04-18T02:07:29.748Z,99.90
2023-04-18T02:09:56.428Z,99.90
2023-04-18T02:12:23.037Z,99.90
2023-04-18T02:14:53.601Z,99.90
2023-04-18T02:17:26.336Z,99.90
2023-04-18T02:19:53.016Z,99.90
2023-04-18T02:22:19.952Z,99.90
2023-04-18T02:24:46.661Z,99.90
2023-04-18T02:27:13.306Z,99.90
2023-04-18T02:29:39.937Z,99.90
2023-04-18T02:32:06.699Z,99.90
2023-04-18T02:34:33.758Z,99.90
2023-04-18T02:37:00.678Z,99.90
2023-04-18T02:39:27.338Z,99.90
2023-04-18T02:41:54.140Z,99.90
2023-04-18T02:44:20.830Z,99.90
2023-04-18T02:46:47.514Z,99.90
2023-04-18T02:49:16.701Z,99.90
2023-04-18T02:51:43.386Z,99.90
2023-04-18T02:54:10.097Z,99.90
2023-04-18T02:56:40.058Z,99.90
2023-04-18T02:59:07.215Z,99.90
2023-04-18T03:01:34.241Z,99.90
2023-04-18T03:04:00.908Z,99.90
2023-04-18T03:06:30.333Z,99.90
2023-04-18T03:08:56.993Z,99.90
2023-04-18T03:11:23.654Z,99.90
2023-04-18T03:13:50.270Z,99.90
2023-04-18T03:16:17.056Z,99.90
2023-04-18T03:18:47.416Z,99.90
2023-04-18T03:21:14.753Z,99.90
2023-04-18T03:23:41.402Z,99.90
2023-04-18T03:26:08.962Z,99.90
2023-04-18T03:28:35.716Z,99.90
2023-04-18T03:31:02.438Z,99.90
2023-04-18T03:33:30.310Z,99.90
2023-04-18T03:35:57.047Z,99.90
2023-04-18T03:38:23.798Z,99.90
2023-04-18T03:40:50.718Z,99.90
2023-04-18T03:43:19.116Z,99.90
2023-04-18T03:45:50.070Z,99.90
2023-04-18T03:48:16.763Z,99.90
2023-04-18T03:50:43.458Z,99.90
2023-04-18T03:53:10.202Z,99.90
2023-04-18T03:55:38.045Z,99.90
2023-04-18T03:58:04.779Z,99.90
2023-04-18T04:00:31.416Z,99.90
2023-04-18T04:02:58.156Z,99.90
2023-04-18T04:05:26.312Z,99.90
2023-04-18T04:07:53.048Z,99.90
2023-04-18T04:10:19.782Z,99.90
2023-04-18T04:12:49.326Z,99.90
2023-04-18T04:15:16.152Z,99.90
2023-04-18T04:17:42.909Z,99.90
2023-04-18T04:20:09.951Z,99.90
2023-04-18T04:22:37.472Z,99.90
2023-04-18T04:25:04.655Z,99.90
2023-04-18T04:27:31.374Z,99.90
2023-04-18T04:29:58.029Z,99.90
2023-04-18T04:32:26.362Z,99.90
2023-04-18T04:34:53.619Z,99.90
2023-04-18T04:37:20.287Z,99.90
2023-04-18T04:39:47.204Z,99.90
2023-04-18T04:42:13.848Z,99.90
2023-04-18T04:44:41.680Z,99.90
2023-04-18T04:47:08.622Z,99.90
2023-04-18T04:49:35.423Z,99.90
2023-04-18T04:52:03.146Z,99.90
2023-04-18T04:54:30.301Z,99.90
2023-04-18T04:56:57.026Z,99.90
2023-04-18T04:59:24.003Z,99.90
2023-04-18T05:01:51.068Z,99.90
2023-04-18T05:04:20.785Z,99.90
2023-04-18T05:06:47.692Z,99.90
2023-04-18T05:09:14.425Z,99.90
2023-04-18T05:11:41.154Z,99.90
2023-04-18T05:14:08.054Z,99.90
2023-04-18T05:16:34.855Z,99.90
2023-04-18T05:19:01.633Z,99.90
2023-04-18T05:21:28.925Z,99.90
2023-04-18T05:24:04.490Z,99.90
2023-04-18T05:26:31.328Z,99.90
2023-04-18T05:28:58.000Z,99.90
2023-04-18T05:31:24.954Z,99.90
2023-04-18T05:33:51.713Z,99.90
2023-04-18T05:36:20.392Z,99.90
2023-04-18T05:38:47.164Z,99.90
2023-04-18T05:41:13.974Z,99.90
2023-04-18T05:43:41.825Z,99.90
2023-04-18T05:46:09.800Z,99.90
2023-04-18T05:48:36.539Z,99.90
2023-04-18T05:51:04.394Z,99.90
2023-04-18T05:53:31.187Z,99.90
2023-04-18T05:56:01.382Z,99.90
2023-04-18T05:58:28.871Z,99.90
2023-04-18T06:00:55.836Z,99.90
2023-04-18T06:03:22.972Z,99.90
2023-04-18T06:05:49.846Z,99.90
2023-04-18T06:08:16.761Z,99.90
2023-04-18T06:10:43.381Z,99.90
2023-04-18T06:13:13.426Z,99.90
2023-04-18T06:15:40.808Z,99.90
2023-04-18T06:18:16.038Z,99.90
2023-04-18T06:20:48.158Z,99.90
2023-04-18T06:23:14.927Z,99.90
2023-04-18T06:25:42.369Z,99.90
2023-04-18T06:28:11.573Z,99.90
2023-04-18T06:30:38.319Z,99.90
2023-04-18T06:33:07.124Z,99.90
2023-04-18T06:35:33.951Z,99.90
2023-04-18T06:38:00.888Z,99.90
2023-04-18T06:40:29.818Z,99.90
2023-04-18T06:42:57.648Z,99.90
2023-04-18T06:45:25.139Z,99.90
2023-04-18T06:47:54.426Z,99.90
2023-04-18T06:50:28.799Z,99.90
2023-04-18T06:52:55.695Z,99.90
2023-04-18T06:55:22.606Z,99.90
2023-04-18T06:57:49.390Z,99.90
2023-04-18T07:00:19.157Z,99.90
2023-04-18T07:02:46.040Z,99.90
2023-04-18T07:05:12.847Z,99.90
2023-04-18T07:07:39.792Z,99.90
2023-04-18T07:10:06.944Z,99.90
2023-04-18T07:12:33.973Z,99.90
2023-04-18T07:15:00.786Z,99.90
2023-04-18T07:17:27.482Z,99.90
2023-04-18T07:19:54.170Z,99.90
2023-04-18T07:22:21.109Z,99.90
2023-04-18T07:24:47.886Z,99.90
2023-04-18T07:27:15.024Z,99.90
2023-04-18T07:29:41.664Z,99.90
2023-04-18T07:32:08.687Z,99.90
2023-04-18T07:34:36.170Z,99.90
2023-04-18T07:37:03.242Z,99.90
2023-04-18T07:39:31.786Z,99.90
2023-04-18T07:41:58.831Z,99.90
2023-04-18T07:44:25.413Z,99.90
2023-04-18T07:46:51.986Z,99.90
2023-04-18T07:49:18.554Z,99.90
2023-04-18T07:51:45.117Z,99.90
2023-04-18T07:54:11.678Z,99.90
2023-04-18T07:56:38.269Z,99.90
2023-04-18T07:59:04.843Z,99.90
2023-04-18T08:01:31.626Z,99.90
2023-04-18T08:04:01.794Z,99.90
2023-04-18T08:06:28.966Z,99.90
2023-04-18T08:08:55.731Z,99.90
2023-04-18T08:11:22.557Z,99.90
2023-04-18T08:13:49.213Z,99.90
2023-04-18T08:16:17.484Z,99.90
2023-04-18T08:18:44.341Z,99.90
2023-04-18T08:21:11.315Z,99.90
2023-04-18T08:23:38.186Z,99.90
2023-04-18T08:26:04.840Z,99.90
2023-04-18T08:28:31.441Z,99.90
2023-04-18T08:30:58.112Z,99.90
2023-04-18T08:33:24.892Z,99.90
2023-04-18T08:35:51.488Z,99.90
2023-04-18T08:38:21.756Z,99.90
2023-04-18T08:40:48.367Z,99.90
2023-04-18T08:43:15.803Z,99.90
2023-04-18T08:45:43.156Z,99.90
2023-04-18T08:48:13.663Z,99.90
2023-04-18T08:50:46.272Z,99.90
2023-04-18T08:53:13.225Z,99.90
2023-04-18T08:55:40.594Z,99.90
2023-04-18T08:58:07.257Z,99.90
2023-04-18T09:00:35.147Z,99.90
2023-04-18T09:03:04.939Z,99.90
2023-04-18T09:05:31.677Z,99.90
2023-04-18T09:07:58.227Z,99.90
2023-04-18T09:10:27.330Z,99.90
2023-04-18T09:12:54.143Z,99.90
2023-04-18T09:15:23.769Z,99.90
2023-04-18T09:17:53.363Z,99.90
2023-04-18T09:20:35.526Z,99.90
2023-04-18T09:23:03.807Z,99.90
2023-04-18T09:25:42.728Z,99.90
2023-04-18T09:28:28.058Z,99.90
2023-04-18T09:31:15.608Z,99.90
2023-04-18T09:33:57.184Z,99.90
2023-04-18T09:36:24.872Z,99.90
2023-04-18T09:38:55.377Z,99.90
2023-04-18T09:41:23.666Z,99.90
2023-04-18T09:43:55.432Z,99.90
2023-04-18T09:46:22.731Z,99.90
2023-04-18T09:48:52.277Z,99.90
2023-04-18T09:51:20.566Z,99.90
2023-04-18T09:53:48.071Z,99.90
2023-04-18T09:56:19.777Z,98.80
2023-04-18T09:58:48.542Z,95.50
2023-04-18T10:01:17.856Z,94.90
2023-04-18T10:03:47.279Z,96.70
2023-04-18T10:06:16.199Z,97.20
2023-04-18T10:08:46.335Z,97.70
2023-04-18T10:11:13.575Z,99.10
2023-04-18T10:13:41.805Z,98.80
2023-04-18T10:16:08.854Z,98.20
2023-04-18T10:18:36.035Z,97.40
2023-04-18T10:21:03.978Z,97.50
2023-04-18T10:23:40.725Z,98.30
2023-04-18T10:26:08.277Z,98.20
2023-04-18T10:29:01.651Z,99.10
2023-04-18T10:31:29.365Z,99.00
2023-04-18T10:34:05.286Z,99.30
2023-04-18T10:36:33.411Z,99.50
2023-04-18T10:39:00.866Z,99.90
2023-04-18T10:41:31.629Z,99.50
2023-04-18T10:44:08.631Z,99.90
2023-04-18T10:46:42.542Z,99.90
2023-04-18T10:49:24.017Z,99.90
2023-04-18T10:52:09.106Z,99.90
2023-04-18T10:54:48.893Z,99.90
2023-04-18T10:57:15.779Z,99.90
2023-04-18T10:59:46.781Z,99.90
2023-04-18T11:02:30.634Z,99.90
2023-04-18T11:05:06.572Z,99.90
2023-04-18T11:07:37.201Z,99.90
2023-04-18T11:10:09.983Z,99.90
2023-04-18T11:12:40.734Z,99.90
2023-04-18T11:15:17.393Z,99.90
2023-04-18T11:18:18.762Z,99.80
2023-04-18T11:20:52.762Z,99.80
2023-04-18T11:23:30.708Z,99.90
2023-04-18T11:26:01.174Z,99.40
2023-04-18T11:28:31.905Z,99.40
2023-04-18T11:31:03.275Z,99.60
2023-04-18T11:33:38.297Z,99.90
2023-04-18T11:36:07.965Z,99.60
2023-04-18T11:38:36.591Z,99.20
2023-04-18T11:41:06.130Z,99.40
2023-04-18T11:43:37.548Z,98.30
2023-04-18T11:46:12.165Z,98.70
2023-04-18T11:48:46.255Z,99.70
2023-04-18T11:51:38.443Z,99.50
2023-04-18T11:54:30.331Z,99.80
2023-04-18T11:57:01.129Z,99.30
2023-04-18T11:59:29.768Z,99.80
2023-04-18T12:02:17.301Z,99.90
2023-04-18T12:04:52.160Z,99.90
2023-04-18T12:07:38.529Z,99.90
2023-04-18T12:10:08.834Z,99.90
2023-04-18T12:12:47.682Z,99.90
2023-04-18T12:15:15.141Z,99.90
2023-04-18T12:17:45.933Z,99.90
2023-04-18T12:20:18.410Z,99.40
2023-04-18T12:23:03.109Z,99.80
2023-04-18T12:25:40.610Z,99.20
2023-04-18T12:28:21.467Z,97.90
2023-04-18T12:30:48.377Z,96.00
2023-04-18T12:33:17.272Z,97.10
2023-04-18T12:35:44.456Z,96.90
2023-04-18T12:38:11.597Z,96.30
2023-04-18T12:40:41.685Z,96.10
2023-04-18T12:43:15.705Z,95.30
2023-04-18T12:45:50.741Z,95.70
2023-04-18T12:48:20.748Z,95.70
2023-04-18T12:50:55.986Z,96.50
2023-04-18T12:53:31.472Z,95.60
2023-04-18T12:56:00.927Z,95.40
2023-04-18T12:58:29.455Z,92.70
2023-04-18T13:01:01.240Z,92.60
2023-04-18T13:03:31.083Z,92.00
2023-04-18T13:06:01.104Z,90.80
2023-04-18T13:08:28.066Z,91.80
2023-04-18T13:10:57.896Z,92.00
2023-04-18T13:13:24.928Z,91.80
2023-04-18T13:15:54.009Z,91.70
2023-04-18T13:18:21.857Z,91.40
2023-04-18T13:20:51.230Z,91.00
2023-04-18T13:23:21.789Z,91.00
2023-04-18T13:25:51.009Z,90.80
2023-04-18T13:28:20.262Z,90.00
2023-04-18T13:30:49.787Z,89.70
2023-04-18T13:33:22.189Z,90.10
2023-04-18T13:35:50.535Z,90.50
2023-04-18T13:38:20.493Z,91.00
2023-04-18T13:40:47.100Z,90.30
2023-04-18T13:43:15.309Z,89.40
2023-04-18T13:45:41.934Z,90.10
2023-04-18T13:48:08.561Z,90.00
2023-04-18T13:50:35.256Z,90.00
2023-04-18T13:53:01.911Z,88.20
2023-04-18T13:55:28.894Z,87.10
2023-04-18T13:57:55.723Z,85.70
2023-04-18T14:00:22.316Z,86.40
2023-04-18T14:02:49.119Z,86.60
2023-04-18T14:05:15.901Z,87.00
2023-04-18T14:07:42.909Z,85.50
2023-04-18T14:10:09.813Z,84.80
2023-04-18T14:12:39.170Z,84.40
2023-04-18T14:15:06.147Z,83.50
2023-04-18T14:17:33.651Z,85.50
2023-04-18T14:20:00.770Z,84.10
2023-04-18T14:22:27.412Z,84.00
2023-04-18T14:24:56.100Z,84.50
2023-04-18T14:27:23.554Z,83.70
2023-04-18T14:29:53.039Z,80.10
2023-04-18T14:32:28.951Z,78.40
2023-04-18T14:34:58.767Z,78.20
2023-04-18T14:37:25.542Z,78.80
2023-04-18T14:39:54.554Z,78.30
2023-04-18T14:42:21.946Z,78.20
2023-04-18T14:44:48.746Z,78.80
2023-04-18T14:47:15.910Z,76.60
2023-04-18T14:49:43.847Z,76.10
2023-04-18T14:52:13.456Z,74.90
2023-04-18T14:54:40.126Z,73.90
2023-04-18T14:57:08.416Z,73.80
2023-04-18T14:59:35.138Z,72.00
2023-04-18T15:02:03.053Z,69.40
2023-04-18T15:04:29.962Z,69.00
2023-04-18T15:06:56.889Z,69.80
2023-04-18T15:09:23.620Z,71.70
2023-04-18T15:11:50.763Z,72.10
2023-04-18T15:14:17.424Z,73.50
2023-04-18T15:16:48.712Z,72.10
2023-04-18T15:19:15.600Z,70.10
2023-04-18T15:21:51.176Z,69.10
2023-04-18T15:24:17.981Z,67.30
2023-04-18T15:26:45.215Z,66.50
2023-04-18T15:29:11.875Z,67.10
2023-04-18T15:31:39.293Z,68.20
2023-04-18T15:34:07.101Z,68.90
2023-04-18T15:36:35.863Z,70.10
2023-04-18T15:41:34.375Z,69.60
2023-04-18T15:44:01.034Z,68.20
2023-04-18T15:46:27.739Z,65.20
2023-04-18T15:48:54.575Z,64.80
2023-04-18T15:51:21.731Z,63.50
2023-04-18T15:53:48.668Z,62.90
2023-04-18T15:56:15.318Z,61.70
2023-04-18T15:58:44.316Z,61.60
2023-04-18T16:01:12.137Z,61.80
2023-04-18T16:03:41.855Z,62.30
2023-04-18T16:06:11.902Z,62.20
2023-04-18T16:08:41.291Z,59.70
2023-04-18T16:11:09.080Z,60.20
2023-04-18T16:13:41.241Z,60.50
2023-04-18T16:16:08.130Z,62.20
2023-04-18T16:18:35.102Z,61.90
2023-04-18T16:21:01.884Z,61.60
2023-04-18T16:23:32.634Z,60.60
2023-04-18T16:26:02.001Z,61.60
2023-04-18T16:28:31.130Z,62.50
2023-04-18T16:30:57.870Z,63.10
2023-04-18T16:33:27.316Z,63.90
2023-04-18T16:35:56.735Z,65.20
2023-04-18T16:38:25.347Z,64.90
2023-04-18T16:40:52.076Z,64.10
2023-04-18T16:43:18.904Z,65.00
2023-04-18T16:45:45.643Z,65.60
2023-04-18T16:48:12.610Z,66.20
2023-04-18T16:50:41.978Z,65.60
2023-04-18T16:53:19.072Z,64.90
2023-04-18T16:55:46.022Z,64.10
2023-04-18T16:58:23.430Z,63.60
2023-04-18T17:00:55.186Z,63.30
2023-04-18T17:03:22.549Z,63.90
2023-04-18T17:05:49.348Z,64.00
2023-04-18T17:08:18.573Z,63.80
2023-04-18T17:10:46.029Z,63.20
2023-04-18T17:13:12.841Z,63.00
2023-04-18T17:15:39.506Z,63.40
2023-04-18T17:18:06.224Z,64.10
2023-04-18T17:20:32.729Z,64.30
2023-04-18T17:22:59.290Z,65.30
2023-04-18T17:25:25.821Z,66.40
2023-04-18T17:27:52.422Z,67.80
2023-04-18T17:30:19.032Z,69.60
2023-04-18T17:32:46.071Z,70.40
2023-04-18T17:35:14.445Z,71.40
2023-04-18T17:37:42.169Z,71.50
2023-04-18T17:40:09.832Z,71.40
2023-04-18T17:42:36.841Z,72.40
2023-04-18T17:45:07.530Z,73.70
2023-04-18T17:47:34.539Z,74.10
2023-04-18T17:50:01.105Z,75.50
2023-04-18T17:52:28.534Z,76.60
2023-04-18T17:54:56.353Z,77.70
2023-04-18T17:57:23.469Z,78.20
2023-04-18T17:59:50.013Z,79.10
2023-04-18T18:02:16.671Z,79.60
2023-04-18T18:04:43.243Z,81.20
2023-04-18T18:07:12.859Z,80.40
2023-04-18T18:09:40.724Z,81.10
2023-04-18T18:12:08.146Z,82.10
2023-04-18T18:14:34.643Z,83.00
2023-04-18T18:17:01.290Z,84.10
2023-04-18T18:19:27.864Z,84.40
2023-04-18T18:21:54.535Z,85.20
2023-04-18T18:24:21.136Z,86.00
2023-04-18T18:26:48.562Z,86.90
2023-04-18T18:29:17.094Z,87.70
2023-04-18T18:31:43.804Z,88.00
2023-04-18T18:34:10.813Z,88.20
2023-04-18T18:36:37.396Z,89.50
2023-04-18T18:39:04.046Z,90.20
2023-04-18T18:41:31.036Z,90.60
2023-04-18T18:43:57.579Z,90.80
2023-04-18T18:46:24.125Z,91.30
2023-04-18T18:48:51.774Z,91.60
2023-04-18T18:51:19.069Z,92.10
2023-04-18T18:53:46.311Z,92.20
2023-04-18T18:56:12.929Z,92.50
2023-04-18T18:58:39.466Z,92.70
2023-04-18T19:01:06.592Z,92.90
2023-04-18T19:03:34.621Z,93.50
2023-04-18T19:06:03.804Z,93.70
2023-04-18T19:08:30.804Z,93.90
2023-04-18T19:10:57.437Z,93.90
2023-04-18T19:13:24.175Z,94.10
2023-04-18T19:15:51.137Z,94.30
2023-04-18T19:18:21.170Z,94.40
2023-04-18T19:20:49.336Z,94.40
2023-04-18T19:23:16.962Z,94.50
2023-04-18T19:25:44.903Z,94.60
2023-04-18T19:28:12.804Z,94.60
2023-04-18T19:30:39.468Z,95.00
2023-04-18T19:33:06.201Z,95.00
2023-04-18T19:35:32.819Z,95.10
2023-04-18T19:38:02.143Z,95.20
2023-04-18T19:40:29.226Z,95.30
2023-04-18T19:42:55.827Z,95.40
2023-04-18T19:45:22.422Z,95.40
2023-04-18T19:47:49.051Z,95.40
2023-04-18T19:50:15.787Z,95.60
2023-04-18T19:52:45.285Z,95.60
2023-04-18T19:55:12.086Z,95.80
2023-04-18T19:57:39.486Z,95.80
2023-04-18T20:00:07.386Z,95.90
2023-04-18T20:02:34.147Z,96.00
2023-04-18T20:05:01.006Z,96.10
2023-04-18T20:07:27.628Z,96.10
2023-04-18T20:09:57.187Z,96.30
2023-04-18T20:12:23.714Z,96.60
2023-04-18T20:14:51.377Z,96.60
2023-04-18T20:17:18.369Z,96.70
2023-04-18T20:19:47.059Z,96.60
2023-04-18T20:22:14.814Z,96.50
2023-04-18T20:24:41.333Z,96.70
2023-04-18T20:27:08.046Z,96.50
2023-04-18T20:29:34.653Z,96.90
2023-04-18T20:32:01.185Z,97.00
2023-04-18T20:34:27.838Z,97.20
2023-04-18T20:36:54.430Z,97.10
2023-04-18T20:39:20.971Z,97.10
2023-04-18T20:41:53.666Z,97.30
2023-04-18T20:44:21.609Z,97.30
2023-04-18T20:46:48.132Z,97.20
2023-04-18T20:49:15.533Z,97.10
2023-04-18T20:51:42.600Z,97.20
2023-04-18T20:54:15.851Z,97.30
2023-04-18T20:56:52.628Z,97.50
2023-04-18T20:59:28.090Z,97.60
2023-04-18T21:01:54.700Z,97.70
2023-04-18T21:04:21.408Z,97.80
2023-04-18T21:06:47.966Z,98.00
2023-04-18T21:09:15.248Z,98.10
2023-04-18T21:11:42.080Z,98.30
2023-04-18T21:14:08.734Z,98.20
2023-04-18T21:16:36.698Z,98.40
2023-04-18T21:19:03.354Z,98.70
2023-04-18T21:21:30.012Z,98.80
2023-04-18T21:23:56.586Z,99.10
2023-04-18T21:26:23.064Z,99.10
2023-04-18T21:28:56.554Z,99.40
2023-04-18T21:31:23.525Z,99.50
2023-04-18T21:33:56.389Z,99.30
2023-04-18T21:36:23.360Z,99.70
2023-04-18T21:38:53.699Z,99.70
2023-04-18T21:41:20.804Z,99.90
2023-04-18T21:43:47.418Z,99.80
2023-04-18T21:46:14.103Z,99.90
2023-04-18T21:48:41.206Z,99.90
2023-04-18T21:51:08.381Z,99.90
2023-04-18T21:53:35.425Z,99.90
2023-04-18T21:56:01.949Z,99.90
2023-04-18T21:58:28.580Z,99.90
2023-04-18T22:00:55.288Z,99.90
2023-04-18T22:03:22.649Z,99.90
2023-04-18T22:05:50.157Z,99.90
2023-04-18T22:08:16.743Z,99.90
2023-04-18T22:10:44.717Z,99.90
2023-04-18T22:13:11.346Z,99.90
2023-04-18T22:15:39.393Z,99.90
2023-04-18T22:18:06.447Z,99.90
2023-04-18T22:20:33.650Z,99.90
2023-04-18T22:23:00.217Z,99.90
2023-04-18T22:25:26.744Z,99.90
2023-04-18T22:27:53.298Z,99.90
2023-04-18T22:30:20.544Z,99.90
2023-04-18T22:32:47.096Z,99.90
2023-04-18T22:35:13.652Z,99.90
2023-04-18T22:37:40.193Z,99.90
2023-04-18T22:40:07.207Z,99.90
2023-04-18T22:42:38.794Z,99.90
2023-04-18T22:45:06.637Z,99.90
2023-04-18T22:47:33.762Z,99.90
2023-04-18T22:50:01.374Z,99.90
2023-04-18T22:52:41.162Z,99.90
2023-04-18T22:55:08.370Z,99.90
2023-04-18T22:57:36.273Z,99.90
2023-04-18T23:00:07.096Z,99.90
2023-04-18T23:02:36.303Z,99.90
2023-04-18T23:05:04.156Z,99.90
2023-04-18T23:07:30.777Z,99.90
2023-04-18T23:10:04.165Z,99.90
2023-04-18T23:12:33.837Z,99.90
2023-04-18T23:15:01.030Z,99.90
2023-04-18T23:17:27.934Z,99.90
2023-04-18T23:19:57.776Z,99.90
2023-04-18T23:22:38.298Z,99.90
2023-04-18T23:25:07.760Z,99.90
2023-04-18T23:27:34.508Z,99.90
2023-04-18T23:30:05.979Z,99.90
2023-04-18T23:32:38.918Z,99.90
2023-04-18T23:35:09.193Z,99.90
2023-04-18T23:37:35.952Z,99.90
2023-04-18T23:40:06.649Z,99.90
2023-04-18T23:42:39.429Z,99.90
2023-04-18T23:45:06.652Z,99.90
2023-04-18T23:47:36.603Z,99.90
2023-04-18T23:50:08.229Z,99.90
2023-04-18T23:52:34.984Z,99.90
2023-04-18T23:55:02.272Z,99.90
2023-04-18T23:57:40.364Z,99.90
